createdAt,value
2018-07-28T00:00:11.997Z,47.90
2018-07-28T00:03:09.187Z,47.96
2018-07-28T00:06:06.368Z,48.16
2018-07-28T00:09:03.579Z,49.27
2018-07-28T00:12:01.485Z,48.92
2018-07-28T00:14:59.468Z,49.70
2018-07-28T00:17:57.597Z,48.90
2018-07-28T00:20:54.644Z,49.79
2018-07-28T00:23:52.630Z,48.90
2018-07-28T00:26:49.596Z,49.16
2018-07-28T00:29:47.681Z,49.04
2018-07-28T00:32:45.580Z,50.40
2018-07-28T00:35:42.896Z,50.03
2018-07-28T00:38:40.795Z,49.62
2018-07-28T00:41:37.916Z,49.22
2018-07-28T00:44:35.877Z,49.31
2018-07-28T00:47:33.816Z,50.54
2018-07-28T00:50:31.799Z,51.36
2018-07-28T00:53:29.870Z,51.27
2018-07-28T00:56:27.701Z,52.01
2018-07-28T00:59:25.836Z,51.73
2018-07-28T01:02:23.676Z,51.84
2018-07-28T01:05:21.640Z,51.44
2018-07-28T01:08:19.698Z,52.68
2018-07-28T01:11:17.801Z,51.71
2018-07-28T01:14:15.897Z,53.14
2018-07-28T01:17:14.054Z,52.72
2018-07-28T01:20:11.220Z,53.13
2018-07-28T01:23:09.055Z,51.87
2018-07-28T01:26:07.112Z,51.71
2018-07-28T01:29:11.312Z,52.54
2018-07-28T01:32:09.268Z,52.24
2018-07-28T01:35:07.092Z,52.22
2018-07-28T01:38:05.269Z,52.43
2018-07-28T01:41:03.126Z,52.84
2018-07-28T01:44:01.003Z,51.89
2018-07-28T01:46:58.766Z,51.63
2018-07-28T01:49:56.778Z,52.50
2018-07-28T01:52:54.827Z,51.90
2018-07-28T01:55:52.658Z,51.75
2018-07-28T01:58:50.508Z,51.87
2018-07-28T02:01:49.448Z,51.60
2018-07-28T02:04:46.595Z,52.74
2018-07-28T02:07:44.435Z,52.11
2018-07-28T02:10:41.475Z,52.82
2018-07-28T02:13:39.428Z,53.15
2018-07-28T02:16:37.620Z,52.81
2018-07-28T02:19:35.584Z,52.92
2018-07-28T02:22:33.776Z,55.15
2018-07-28T02:25:32.020Z,55.26
2018-07-28T02:28:29.899Z,55.78
2018-07-28T02:31:26.981Z,54.04
2018-07-28T02:34:23.936Z,54.37
2018-07-28T02:37:21.886Z,53.66
2018-07-28T02:40:19.051Z,54.09
2018-07-28T02:43:17.223Z,53.85
2018-07-28T02:46:15.307Z,53.45
2018-07-28T02:49:13.257Z,54.05
2018-07-28T02:52:11.049Z,54.21
2018-07-28T02:55:08.843Z,54.01
2018-07-28T02:58:06.985Z,54.40
2018-07-28T03:01:05.006Z,54.60
2018-07-28T03:04:02.868Z,54.69
2018-07-28T03:07:00.784Z,54.63
2018-07-28T03:09:58.807Z,54.99
2018-07-28T03:12:56.767Z,54.25
2018-07-28T03:15:54.748Z,54.83
2018-07-28T03:18:52.916Z,54.69
2018-07-28T03:21:50.684Z,54.50
2018-07-28T03:24:47.767Z,54.55
2018-07-28T03:27:45.607Z,54.88
2018-07-28T03:30:42.570Z,55.41
2018-07-28T03:33:40.688Z,54.82
2018-07-28T03:36:38.634Z,55.85
2018-07-28T03:39:35.868Z,55.79
2018-07-28T03:42:32.949Z,55.14
2018-07-28T03:45:30.799Z,55.46
2018-07-28T03:48:27.978Z,55.68
2018-07-28T03:51:25.839Z,55.95
2018-07-28T03:54:22.880Z,55.96
2018-07-28T03:57:21.062Z,55.94
2018-07-28T04:00:21.096Z,55.76
2018-07-28T04:03:19.231Z,55.90
2018-07-28T04:06:16.518Z,55.53
2018-07-28T04:09:14.163Z,55.06
2018-07-28T04:12:11.318Z,54.98
2018-07-28T04:15:09.371Z,54.37
2018-07-28T04:18:07.323Z,54.12
2018-07-28T04:21:05.490Z,53.67
2018-07-28T04:24:03.543Z,53.78
2018-07-28T04:27:00.735Z,53.41
2018-07-28T04:29:58.860Z,52.75
2018-07-28T04:32:56.928Z,52.20
2018-07-28T04:35:54.869Z,53.28
2018-07-28T04:38:52.783Z,53.37
2018-07-28T04:41:50.531Z,53.01
2018-07-28T04:44:47.536Z,53.59
2018-07-28T04:47:44.780Z,54.57
2018-07-28T04:50:42.028Z,54.36
2018-07-28T04:53:42.952Z,54.13
2018-07-28T04:56:40.256Z,54.55
2018-07-28T04:59:37.483Z,52.90
2018-07-28T05:02:36.423Z,51.64
2018-07-28T05:05:34.452Z,49.86
2018-07-28T05:08:31.702Z,48.81
2018-07-28T05:11:29.683Z,48.36
2018-07-28T05:14:26.876Z,48.37
2018-07-28T05:17:24.618Z,47.42
2018-07-28T05:20:22.106Z,47.20
2018-07-28T05:23:19.522Z,47.25
2018-07-28T05:26:16.731Z,46.78
2018-07-28T05:29:13.803Z,46.14
2018-07-28T05:32:11.799Z,45.76
2018-07-28T05:35:09.703Z,45.38
2018-07-28T05:38:07.796Z,44.11
2018-07-28T05:41:05.824Z,43.60
2018-07-28T05:44:03.748Z,43.23
2018-07-28T05:47:01.311Z,41.86
2018-07-28T05:49:59.205Z,40.36
2018-07-28T05:52:56.479Z,40.47
2018-07-28T05:55:54.636Z,39.15
2018-07-28T05:58:52.559Z,39.16
2018-07-28T06:01:50.552Z,40.51
2018-07-28T06:04:48.669Z,42.93
2018-07-28T06:07:46.614Z,45.23
2018-07-28T06:10:43.868Z,46.00
2018-07-28T06:13:41.849Z,45.20
2018-07-28T06:16:39.641Z,44.71
2018-07-28T06:19:37.679Z,43.96
2018-07-28T06:22:35.627Z,44.21
2018-07-28T06:25:33.856Z,41.58
2018-07-28T06:28:31.378Z,39.86
2018-07-28T06:31:29.136Z,38.80
2018-07-28T06:34:26.680Z,38.17
2018-07-28T06:37:24.582Z,37.81
2018-07-28T06:40:22.636Z,36.76
2018-07-28T06:43:20.616Z,36.49
2018-07-28T06:46:17.616Z,35.80
2018-07-28T06:49:16.591Z,35.81
2018-07-28T06:52:13.680Z,36.34
2018-07-28T06:55:11.530Z,34.85
2018-07-28T06:58:09.379Z,33.93
2018-07-28T07:01:06.766Z,34.17
2018-07-28T07:04:03.984Z,33.69
2018-07-28T07:07:02.042Z,34.19
2018-07-28T07:10:00.230Z,33.73
2018-07-28T07:12:58.335Z,35.19
2018-07-28T07:15:55.478Z,34.14
2018-07-28T07:18:52.679Z,31.19
2018-07-28T07:21:50.863Z,31.10
2018-07-28T07:24:48.891Z,31.33
2018-07-28T07:27:46.718Z,31.10
2018-07-28T07:30:43.928Z,29.45
2018-07-28T07:33:41.045Z,29.34
2018-07-28T07:36:38.856Z,30.43
2018-07-28T07:39:36.471Z,30.31
2018-07-28T07:42:34.401Z,29.49
2018-07-28T07:45:32.702Z,30.58
2018-07-28T07:48:30.630Z,28.86
2018-07-28T07:51:28.658Z,28.74
2018-07-28T07:54:26.602Z,27.05
2018-07-28T07:57:24.494Z,27.20
2018-07-28T08:00:21.882Z,27.16
2018-07-28T08:03:19.683Z,27.66
2018-07-28T08:06:17.616Z,29.51
2018-07-28T08:09:14.839Z,29.26
2018-07-28T08:12:12.647Z,29.63
2018-07-28T08:15:09.955Z,28.92
2018-07-28T08:18:07.271Z,27.81
2018-07-28T08:21:04.654Z,28.04
2018-07-28T08:24:01.850Z,26.25
2018-07-28T08:26:59.222Z,26.52
2018-07-28T08:29:56.922Z,27.05
2018-07-28T08:32:54.120Z,26.49
2018-07-28T08:35:51.612Z,25.21
2018-07-28T08:38:49.276Z,25.20
2018-07-28T08:41:46.491Z,26.35
2018-07-28T08:44:44.192Z,27.22
2018-07-28T08:47:41.650Z,26.39
2018-07-28T09:10:18.999Z,26.49
2018-07-28T09:13:16.650Z,33.20
2018-07-28T09:16:14.577Z,34.60
2018-07-28T09:19:12.611Z,35.85
2018-07-28T09:22:09.840Z,35.89
2018-07-28T09:25:07.639Z,37.04
2018-07-28T09:28:05.531Z,37.13
2018-07-28T09:31:03.456Z,37.68
2018-07-28T09:34:00.560Z,37.84
2018-07-28T09:36:57.947Z,37.02
2018-07-28T09:39:55.238Z,37.33
2018-07-28T09:42:52.823Z,37.75
2018-07-28T09:45:49.946Z,36.16
2018-07-28T09:48:47.886Z,36.35
2018-07-28T09:51:45.495Z,35.00
2018-07-28T09:54:43.408Z,33.55
2018-07-28T09:57:41.043Z,33.29
2018-07-28T10:00:44.768Z,33.80
2018-07-28T10:03:42.823Z,33.48
2018-07-28T10:06:40.862Z,32.74
2018-07-28T10:09:38.313Z,33.45
2018-07-28T10:12:36.507Z,34.16
2018-07-28T10:15:33.811Z,34.67
2018-07-28T10:18:30.973Z,35.88
2018-07-28T10:21:28.756Z,35.17
2018-07-28T10:24:26.751Z,36.48
2018-07-28T10:27:24.263Z,35.77
2018-07-28T10:30:22.762Z,36.66
2018-07-28T10:33:20.628Z,36.21
2018-07-28T10:36:18.270Z,36.88
2018-07-28T10:39:15.332Z,37.55
2018-07-28T10:42:12.927Z,38.08
2018-07-28T10:45:10.499Z,38.72
2018-07-28T10:48:08.341Z,38.96
2018-07-28T10:51:05.552Z,38.29
2018-07-28T10:54:02.791Z,38.56
2018-07-28T10:57:00.340Z,39.56
2018-07-28T10:59:58.571Z,38.83
2018-07-28T11:02:56.680Z,39.80
2018-07-28T11:05:53.979Z,40.70
2018-07-28T11:08:51.452Z,41.51
2018-07-28T11:11:48.783Z,41.26
2018-07-28T11:14:45.826Z,40.01
2018-07-28T11:17:43.735Z,40.53
2018-07-28T11:20:40.864Z,41.04
2018-07-28T11:23:50.868Z,39.41
2018-07-28T11:26:48.596Z,39.53
2018-07-28T11:29:45.419Z,40.92
2018-07-28T11:32:55.498Z,41.21
2018-07-28T11:36:04.616Z,41.79
2018-07-28T11:39:14.156Z,41.51
2018-07-28T11:42:24.196Z,42.20
2018-07-28T11:45:27.498Z,42.04
2018-07-28T11:48:24.886Z,41.29
2018-07-28T11:51:22.681Z,40.57
2018-07-28T11:54:20.289Z,41.77
2018-07-28T11:57:18.005Z,42.08
2018-07-28T12:00:17.213Z,41.79
2018-07-28T12:03:14.341Z,42.01
2018-07-28T12:06:12.424Z,42.31
2018-07-28T12:09:09.879Z,42.90
2018-07-28T12:12:07.736Z,42.85
2018-07-28T12:15:05.417Z,43.32
2018-07-28T12:18:03.400Z,44.02
2018-07-28T12:21:00.596Z,44.79
2018-07-28T12:23:57.945Z,44.47
2018-07-28T12:26:55.985Z,44.04
2018-07-28T12:29:53.277Z,44.03
2018-07-28T12:32:50.376Z,43.88
2018-07-28T12:35:47.370Z,44.08
2018-07-28T12:38:45.315Z,43.67
2018-07-28T12:41:42.679Z,43.50
2018-07-28T12:44:40.708Z,42.23
2018-07-28T12:47:38.443Z,42.54
2018-07-28T12:50:36.416Z,41.98
2018-07-28T12:53:34.273Z,41.51
2018-07-28T12:56:31.776Z,41.26
2018-07-28T12:59:29.489Z,42.00
2018-07-28T13:02:26.721Z,40.65
2018-07-28T13:05:24.715Z,41.26
2018-07-28T13:08:22.107Z,41.94
2018-07-28T13:11:19.962Z,42.09
2018-07-28T13:14:17.515Z,42.27
2018-07-28T13:17:15.296Z,43.16
2018-07-28T13:20:13.008Z,42.69
2018-07-28T13:23:10.907Z,43.02
2018-07-28T13:26:08.439Z,41.63
2018-07-28T13:29:05.690Z,41.09
2018-07-28T13:32:02.911Z,40.40
2018-07-28T13:35:00.379Z,40.86
2018-07-28T13:37:58.478Z,41.38
2018-07-28T13:40:56.538Z,41.81
2018-07-28T13:43:54.607Z,41.86
2018-07-28T13:46:51.761Z,42.59
2018-07-28T13:49:49.058Z,41.50
2018-07-28T13:52:46.794Z,41.73
2018-07-28T13:55:44.027Z,42.37
2018-07-28T13:58:49.180Z,42.37
2018-07-28T14:01:47.297Z,43.50
2018-07-28T14:04:45.251Z,42.86
2018-07-28T14:07:43.305Z,42.88
2018-07-28T14:10:41.018Z,42.98
2018-07-28T14:13:38.019Z,43.24
2018-07-28T14:16:35.106Z,43.38
2018-07-28T14:19:32.880Z,42.17
2018-07-28T14:22:30.656Z,42.24
2018-07-28T14:25:27.931Z,42.17
2018-07-28T14:28:25.667Z,42.75
2018-07-28T14:31:23.646Z,42.71
2018-07-28T14:34:21.112Z,42.34
2018-07-28T14:37:18.171Z,42.39
2018-07-28T14:40:15.870Z,42.67
2018-07-28T14:43:13.680Z,43.08
2018-07-28T14:46:10.987Z,42.70
2018-07-28T14:49:08.268Z,43.19
2018-07-28T14:52:06.353Z,42.69
2018-07-28T14:55:05.819Z,41.90
2018-07-28T14:58:02.941Z,42.06
2018-07-28T15:01:00.239Z,41.99
2018-07-28T15:03:58.225Z,42.00
2018-07-28T15:06:55.966Z,42.11
2018-07-28T15:09:53.319Z,42.24
2018-07-28T15:12:51.282Z,42.62
2018-07-28T15:15:48.309Z,42.55
2018-07-28T15:18:45.449Z,42.78
2018-07-28T15:21:42.875Z,42.46
2018-07-28T15:24:40.371Z,42.23
2018-07-28T15:27:38.172Z,41.19
2018-07-28T15:30:35.812Z,40.96
2018-07-28T15:33:33.380Z,41.30
2018-07-28T15:36:30.983Z,40.28
2018-07-28T15:39:29.103Z,40.89
2018-07-28T15:42:26.307Z,40.10
2018-07-28T15:45:23.811Z,40.69
2018-07-28T15:48:21.247Z,39.90
2018-07-28T15:51:18.967Z,40.18
2018-07-28T15:54:16.852Z,40.22
2018-07-28T15:57:14.359Z,41.09
2018-07-28T16:00:11.365Z,41.04
2018-07-28T16:03:09.425Z,40.94
2018-07-28T16:06:07.447Z,41.38
2018-07-28T16:09:04.608Z,41.48
2018-07-28T16:12:02.538Z,41.55
2018-07-28T16:15:00.235Z,40.81
2018-07-28T16:17:57.914Z,41.93
2018-07-28T16:20:55.011Z,41.55
2018-07-28T16:23:52.928Z,41.86
2018-07-28T16:26:50.287Z,41.67
2018-07-28T16:29:48.051Z,41.87
2018-07-28T16:32:45.639Z,41.72
2018-07-28T16:35:42.874Z,41.96
2018-07-28T16:38:40.068Z,42.10
2018-07-28T16:41:37.727Z,42.12
2018-07-28T16:44:35.451Z,41.85
2018-07-28T16:47:33.150Z,42.49
2018-07-28T16:50:30.355Z,42.56
2018-07-28T16:53:27.555Z,42.59
2018-07-28T16:56:25.207Z,42.82
2018-07-28T16:59:23.088Z,43.65
2018-07-28T17:02:20.743Z,44.45
2018-07-28T17:05:17.947Z,45.67
2018-07-28T17:08:15.140Z,46.99
2018-07-28T17:11:12.256Z,47.64
2018-07-28T17:14:09.420Z,48.69
2018-07-28T17:17:06.622Z,49.66
2018-07-28T17:20:03.775Z,51.39
2018-07-28T17:23:01.035Z,51.24
2018-07-28T17:25:58.748Z,53.12
2018-07-28T17:28:56.567Z,52.60
2018-07-28T17:31:53.961Z,53.38
2018-07-28T17:34:52.061Z,54.80
2018-07-28T17:37:49.348Z,55.54
2018-07-28T17:40:46.713Z,55.51
2018-07-28T17:43:44.608Z,55.98
2018-07-28T17:46:42.886Z,56.08
2018-07-28T17:49:40.801Z,55.20
2018-07-28T17:52:38.912Z,55.09
2018-07-28T17:55:36.111Z,56.02
2018-07-28T17:58:34.312Z,56.79
2018-07-28T18:01:32.474Z,57.33
2018-07-28T18:04:29.619Z,57.79
2018-07-28T18:07:27.632Z,58.56
2018-07-28T18:10:25.652Z,58.86
2018-07-28T18:13:22.851Z,59.25
2018-07-28T18:16:20.912Z,60.11
2018-07-28T18:19:18.756Z,61.22
2018-07-28T18:22:16.109Z,63.54
2018-07-28T18:25:14.120Z,64.28
2018-07-28T18:28:11.816Z,64.97
2018-07-28T18:31:09.264Z,65.50
2018-07-28T18:34:06.906Z,65.85
2018-07-28T18:37:04.511Z,65.82
2018-07-28T18:40:02.605Z,65.93
2018-07-28T18:42:59.511Z,66.50
2018-07-28T18:45:57.168Z,65.74
2018-07-28T18:48:54.444Z,66.09
2018-07-28T18:51:52.218Z,66.25
2018-07-28T18:54:49.864Z,65.70
2018-07-28T18:57:47.956Z,65.16
2018-07-28T19:00:46.351Z,66.27
2018-07-28T19:03:43.594Z,65.25
2018-07-28T19:06:41.664Z,65.11
2018-07-28T19:09:44.891Z,64.69
2018-07-28T19:12:48.153Z,65.12
2018-07-28T19:15:46.279Z,66.31
2018-07-28T19:18:50.372Z,66.11
2018-07-28T19:21:47.611Z,66.66
2018-07-28T19:24:45.553Z,66.20
2018-07-28T19:27:43.697Z,65.14
2018-07-28T19:30:40.845Z,65.59
2018-07-28T19:33:38.013Z,65.38
2018-07-28T19:36:41.983Z,65.95
2018-07-28T19:39:39.980Z,66.29
2018-07-28T19:42:43.500Z,65.91
2018-07-28T19:45:41.047Z,64.82
2018-07-28T19:48:38.295Z,64.66
2018-07-28T19:51:35.777Z,65.04
2018-07-28T19:54:33.802Z,65.79
2018-07-28T19:57:31.761Z,65.31
2018-07-28T20:00:29.733Z,64.79
2018-07-28T20:03:26.973Z,65.43
2018-07-28T20:06:24.290Z,65.58
2018-07-28T20:09:22.350Z,66.41
2018-07-28T20:12:19.701Z,66.14
2018-07-28T20:15:17.759Z,66.30
2018-07-28T20:18:15.649Z,65.74
2018-07-28T20:21:12.903Z,66.17
2018-07-28T20:24:10.543Z,65.79
2018-07-28T20:27:08.379Z,65.36
2018-07-28T20:30:06.266Z,65.40
2018-07-28T20:33:04.367Z,65.11
2018-07-28T20:36:02.401Z,65.08
2018-07-28T20:39:00.584Z,64.64
2018-07-28T20:41:57.566Z,65.24
2018-07-28T20:44:54.712Z,65.80
2018-07-28T20:47:52.675Z,65.65
2018-07-28T20:50:50.039Z,65.18
2018-07-28T20:53:48.180Z,65.60
2018-07-28T20:56:46.026Z,66.26
2018-07-28T20:59:44.172Z,66.03
2018-07-28T21:02:41.680Z,65.30
2018-07-28T21:05:38.740Z,65.29
2018-07-28T21:08:35.910Z,65.29
2018-07-28T21:11:33.924Z,65.49
2018-07-28T21:14:31.354Z,66.60
2018-07-28T21:17:29.539Z,66.60
2018-07-28T21:20:27.485Z,66.12
2018-07-28T21:23:25.358Z,66.80
2018-07-28T21:26:22.460Z,67.12
2018-07-28T21:29:19.722Z,67.11
2018-07-28T21:32:17.460Z,67.21
2018-07-28T21:35:15.561Z,66.56
2018-07-28T21:38:12.703Z,67.61
2018-07-28T21:41:10.690Z,68.12
2018-07-28T21:44:08.783Z,67.26
2018-07-28T21:47:06.695Z,66.02
2018-07-28T21:50:04.699Z,68.77
2018-07-28T21:53:01.841Z,68.42
2018-07-28T21:55:59.100Z,69.65
2018-07-28T21:58:56.269Z,70.38
2018-07-28T22:01:53.623Z,70.58
2018-07-28T22:04:51.674Z,71.14
2018-07-28T22:07:49.790Z,70.79
2018-07-28T22:10:47.521Z,70.76
2018-07-28T22:13:45.340Z,70.35
2018-07-28T22:16:42.676Z,68.93
2018-07-28T22:19:40.788Z,69.41
2018-07-28T22:22:39.342Z,71.61
2018-07-28T22:25:36.708Z,71.06
2018-07-28T22:28:34.779Z,71.91
2018-07-28T22:31:32.048Z,72.21
2018-07-28T22:34:30.017Z,72.97
2018-07-28T22:37:28.007Z,72.99
2018-07-28T22:40:25.825Z,71.89
2018-07-28T22:43:23.990Z,71.53
2018-07-28T22:46:21.091Z,72.67
2018-07-28T22:49:19.143Z,73.48
2018-07-28T22:52:16.163Z,73.84
2018-07-28T22:55:13.352Z,73.71
2018-07-28T22:58:11.453Z,73.37
2018-07-28T23:01:09.546Z,72.69
2018-07-28T23:04:07.453Z,73.27
2018-07-28T23:07:04.743Z,73.21
2018-07-28T23:10:01.992Z,73.26
2018-07-28T23:12:59.608Z,74.01
2018-07-28T23:15:57.628Z,72.41
2018-07-28T23:18:55.624Z,72.11
2018-07-28T23:21:53.535Z,71.95
2018-07-28T23:24:51.619Z,71.20
2018-07-28T23:27:49.719Z,71.45
2018-07-28T23:30:47.720Z,72.56
2018-07-28T23:33:44.839Z,71.67
2018-07-28T23:36:41.922Z,72.90
2018-07-28T23:39:39.875Z,73.41
2018-07-28T23:42:37.740Z,72.72
2018-07-28T23:45:34.915Z,73.55
2018-07-28T23:48:32.712Z,74.08
2018-07-28T23:51:30.756Z,73.88
2018-07-28T23:54:28.726Z,73.78
2018-07-28T23:57:26.736Z,73.50
